createdAt,value
2022-11-05T00:01:23.326Z,98759.66
2022-11-05T00:04:13.503Z,98775.69
2022-11-05T00:07:01.960Z,98774.94
2022-11-05T00:09:33.426Z,98772.63
2022-11-05T00:12:31.569Z,98777.53
2022-11-05T00:15:19.747Z,98776.66
2022-11-05T00:17:49.208Z,98774.19
2022-11-05T00:20:19.065Z,98785.19
2022-11-05T00:23:07.447Z,98796.44
2022-11-05T00:25:36.259Z,98779.56
2022-11-05T00:28:05.119Z,98793.91
2022-11-05T00:30:33.813Z,98775.44
2022-11-05T00:33:03.687Z,98777.38
2022-11-05T00:35:33.108Z,98773.75
2022-11-05T00:38:02.492Z,98774.69
2022-11-05T00:40:31.173Z,98777.38
2022-11-05T00:43:18.614Z,98768.81
2022-11-05T00:45:49.839Z,98768.47
2022-11-05T00:48:37.875Z,98757.47
2022-11-05T00:51:08.400Z,98769.47
2022-11-05T00:53:37.245Z,98765.19
2022-11-05T00:56:06.141Z,98763.00
2022-11-05T00:58:34.853Z,98767.38
2022-11-05T01:01:06.504Z,98765.19
2022-11-05T01:03:38.647Z,98770.78
2022-11-05T01:06:11.909Z,98765.78
2022-11-05T01:08:44.373Z,98763.69
2022-11-05T01:11:37.376Z,98782.75
2022-11-05T01:14:12.285Z,98786.53
2022-11-05T01:16:42.183Z,98784.50
2022-11-05T01:19:12.224Z,98779.13
2022-11-05T01:21:41.759Z,98771.28
2022-11-05T01:24:11.637Z,98774.94
2022-11-05T01:26:40.261Z,98777.25
2022-11-05T01:29:11.174Z,98773.94
2022-11-05T01:31:39.983Z,98773.25
2022-11-05T01:34:08.595Z,98771.50
2022-11-05T01:36:37.256Z,98762.00
2022-11-05T01:39:06.933Z,98762.22
2022-11-05T01:41:36.383Z,98757.09
2022-11-05T01:44:05.484Z,98764.91
2022-11-05T01:46:41.346Z,98776.66
2022-11-05T01:49:31.705Z,98770.91
2022-11-05T01:52:05.339Z,98771.75
2022-11-05T01:54:35.876Z,98761.00
2022-11-05T01:57:10.862Z,98765.03
2022-11-05T01:59:46.328Z,98765.41
2022-11-05T02:02:15.598Z,98767.84
2022-11-05T02:04:55.131Z,98778.47
2022-11-05T02:07:28.069Z,98775.66
2022-11-05T02:10:11.240Z,98777.84
2022-11-05T02:12:46.031Z,98774.19
2022-11-05T02:15:45.892Z,98773.72
2022-11-05T02:18:46.387Z,98780.53
2022-11-05T02:21:26.019Z,98780.28
2022-11-05T02:24:43.442Z,98778.56
2022-11-05T02:28:36.694Z,98779.91
2022-11-05T02:31:41.119Z,98781.00
2022-11-05T02:34:37.932Z,98779.88
2022-11-05T02:37:40.366Z,98780.00
2022-11-05T02:40:42.081Z,98780.84
2022-11-05T02:43:35.413Z,98774.00
2022-11-05T02:46:30.850Z,98774.38
2022-11-05T02:49:25.590Z,98775.69
2022-11-05T02:51:59.625Z,98756.03
2022-11-05T02:54:44.065Z,98756.97
2022-11-05T02:57:12.740Z,98762.88
2022-11-05T02:59:41.334Z,98762.59
2022-11-05T03:02:10.968Z,98773.09
2022-11-05T03:04:39.921Z,98769.03
2022-11-05T03:07:42.168Z,98786.84
2022-11-05T03:10:46.324Z,98786.94
2022-11-05T03:14:00.921Z,98801.59
2022-11-05T03:16:36.663Z,98812.41
2022-11-05T03:19:38.597Z,98819.34
2022-11-05T03:22:28.676Z,98827.22
2022-11-05T03:25:08.861Z,98824.63
2022-11-05T03:27:42.267Z,98818.88
2022-11-05T03:30:15.120Z,98824.00
2022-11-05T03:32:53.760Z,98823.94
2022-11-05T03:35:34.482Z,98821.06
2022-11-05T03:38:31.540Z,98836.69
2022-11-05T03:41:06.606Z,98836.47
2022-11-05T03:43:42.121Z,98837.97
2022-11-05T03:46:45.624Z,98832.63
2022-11-05T03:49:25.614Z,98841.50
2022-11-05T03:52:14.834Z,98844.41
2022-11-05T03:54:43.796Z,98840.97
2022-11-05T03:57:33.008Z,98843.66
2022-11-05T04:00:00.917Z,98846.88
2022-11-05T04:02:31.953Z,98851.91
2022-11-05T04:05:01.685Z,98845.78
2022-11-05T04:07:59.362Z,98837.22
2022-11-05T04:11:05.145Z,98840.88
2022-11-05T04:13:34.144Z,98850.94
2022-11-05T04:16:20.514Z,98841.63
2022-11-05T04:18:48.472Z,98855.13
2022-11-05T04:21:34.703Z,98852.53
2022-11-05T04:24:08.419Z,98843.13
2022-11-05T04:26:43.908Z,98829.19
2022-11-05T04:29:32.312Z,98835.09
2022-11-05T04:32:00.077Z,98828.56
2022-11-05T04:34:27.876Z,98829.19
2022-11-05T04:36:55.540Z,98810.13
2022-11-05T04:39:23.318Z,98809.81
2022-11-05T04:41:52.802Z,98813.97
2022-11-05T04:44:20.435Z,98796.72
2022-11-05T04:46:48.086Z,98802.53
2022-11-05T04:49:15.667Z,98815.03
2022-11-05T04:51:43.603Z,98803.25
2022-11-05T04:54:11.305Z,98809.38
2022-11-05T04:56:38.986Z,98814.19
2022-11-05T04:59:10.694Z,98808.72
2022-11-05T05:01:40.331Z,98811.50
2022-11-05T05:04:09.976Z,98820.84
2022-11-05T05:06:38.578Z,98818.16
2022-11-05T05:09:06.300Z,98823.84
2022-11-05T05:11:33.995Z,98828.56
2022-11-05T05:14:02.530Z,98822.13
2022-11-05T05:16:30.222Z,98830.56
2022-11-05T05:18:59.723Z,98823.50
2022-11-05T05:21:40.668Z,98830.47
2022-11-05T05:24:18.944Z,98833.06
2022-11-05T05:26:51.262Z,98835.19
2022-11-05T05:29:19.807Z,98828.97
2022-11-05T05:31:48.312Z,98840.22
2022-11-05T05:34:16.880Z,98839.13
2022-11-05T05:36:46.428Z,98836.47
2022-11-05T05:39:15.082Z,98839.81
2022-11-05T05:41:43.545Z,98832.84
2022-11-05T05:44:12.193Z,98843.13
2022-11-05T05:46:39.941Z,98833.91
2022-11-05T05:49:12.655Z,98835.06
2022-11-05T05:51:41.079Z,98840.00
2022-11-05T05:54:10.663Z,98837.31
2022-11-05T05:56:40.192Z,98840.75
2022-11-05T05:59:07.944Z,98834.00
2022-11-05T06:01:38.301Z,98848.56
2022-11-05T06:04:07.012Z,98856.41
2022-11-05T06:06:34.681Z,98851.16
2022-11-05T06:09:02.609Z,98862.84
2022-11-05T06:11:30.452Z,98872.69
2022-11-05T06:13:58.368Z,98873.97
2022-11-05T06:16:27.886Z,98884.69
2022-11-05T06:18:57.433Z,98885.75
2022-11-05T06:21:25.206Z,98896.25
2022-11-05T06:23:52.897Z,98894.53
2022-11-05T06:26:21.561Z,98908.25
2022-11-05T06:28:49.356Z,98912.75
2022-11-05T06:31:17.054Z,98915.94
2022-11-05T06:33:45.654Z,98918.53
2022-11-05T06:36:18.493Z,98913.50
2022-11-05T06:38:47.753Z,98906.56
2022-11-05T06:41:18.647Z,98915.53
2022-11-05T06:43:48.241Z,98920.72
2022-11-05T06:49:36.871Z,98920.03
2022-11-05T06:52:04.887Z,98919.59
2022-11-05T06:54:33.566Z,98915.88
2022-11-05T06:57:02.235Z,98916.81
2022-11-05T06:59:31.249Z,98916.19
2022-11-05T07:02:00.225Z,98931.22
2022-11-05T07:04:28.962Z,98930.25
2022-11-05T07:07:03.408Z,98924.88
2022-11-05T07:09:32.143Z,98935.16
2022-11-05T07:12:00.860Z,98932.91
2022-11-05T07:14:28.682Z,98928.41
2022-11-05T07:16:58.523Z,98938.72
2022-11-05T07:19:26.395Z,98932.06
2022-11-05T07:21:55.137Z,98935.06
2022-11-05T07:24:23.886Z,98921.25
2022-11-05T07:26:52.881Z,98928.84
2022-11-05T07:29:21.628Z,98932.31
2022-11-05T07:31:50.314Z,98929.72
2022-11-05T07:34:18.257Z,98929.59
2022-11-05T07:36:46.964Z,98932.94
2022-11-05T07:39:15.604Z,98935.19
2022-11-05T07:41:44.302Z,98945.28
2022-11-05T07:44:14.556Z,98953.31
2022-11-05T07:46:43.297Z,98943.88
2022-11-05T07:49:12.071Z,98943.00
2022-11-05T07:51:42.916Z,98940.00
2022-11-05T07:54:11.908Z,98947.72
2022-11-05T07:56:40.645Z,98951.34
2022-11-05T07:59:09.278Z,98950.59
2022-11-05T08:01:37.387Z,98948.06
2022-11-05T08:04:06.104Z,98956.19
2022-11-05T08:06:33.886Z,98949.88
2022-11-05T08:09:02.624Z,98956.09
2022-11-05T08:11:30.420Z,98959.75
2022-11-05T08:13:58.219Z,98966.72
2022-11-05T08:16:27.328Z,98969.91
2022-11-05T08:19:01.276Z,98969.19
2022-11-05T08:21:29.903Z,98969.91
2022-11-05T08:23:58.561Z,98966.06
2022-11-05T08:26:28.072Z,98970.44
2022-11-05T08:28:56.794Z,98971.31
2022-11-05T08:31:25.457Z,98964.91
2022-11-05T08:33:59.711Z,98963.38
2022-11-05T08:36:30.039Z,98967.00
2022-11-05T08:38:57.981Z,98964.53
2022-11-05T08:41:26.756Z,98968.28
2022-11-05T08:43:58.728Z,98973.44
2022-11-05T08:46:27.479Z,98977.75
2022-11-05T08:48:56.172Z,98971.41
2022-11-05T08:51:24.922Z,98970.88
2022-11-05T08:53:53.600Z,98978.94
2022-11-05T08:56:23.431Z,98982.38
2022-11-05T08:58:52.026Z,98985.28
2022-11-05T09:01:20.027Z,98992.97
2022-11-05T09:03:52.230Z,98990.50
2022-11-05T09:06:20.927Z,98987.59
2022-11-05T09:08:48.816Z,99004.13
2022-11-05T09:11:18.374Z,99002.09
2022-11-05T09:13:47.111Z,99000.16
2022-11-05T09:16:25.893Z,99004.34
2022-11-05T09:18:56.185Z,99001.38
2022-11-05T09:21:25.556Z,99004.13
2022-11-05T09:23:54.298Z,99004.53
2022-11-05T09:26:23.746Z,99003.06
2022-11-05T09:28:52.401Z,99009.16
2022-11-05T09:31:22.099Z,99014.19
2022-11-05T09:33:50.800Z,99012.13
2022-11-05T09:36:19.428Z,99018.06
2022-11-05T09:38:47.225Z,99018.19
2022-11-05T09:41:37.511Z,99014.69
2022-11-05T09:44:26.567Z,99018.59
2022-11-05T09:47:02.548Z,99020.75
2022-11-05T09:49:47.027Z,99023.03
2022-11-05T09:52:31.513Z,99024.63
2022-11-05T09:55:02.383Z,99024.75
2022-11-05T09:57:50.672Z,99032.75
2022-11-05T10:00:19.740Z,99028.41
2022-11-05T10:03:05.628Z,99018.75
2022-11-05T10:05:35.719Z,99029.63
2022-11-05T10:08:22.566Z,99026.81
2022-11-05T10:10:57.030Z,99029.06
2022-11-05T10:13:55.473Z,99031.31
2022-11-05T10:16:46.457Z,99019.03
2022-11-05T10:19:26.018Z,99023.38
2022-11-05T10:22:17.159Z,99018.28
2022-11-05T10:24:51.254Z,99011.97
2022-11-05T10:27:39.076Z,99006.63
2022-11-05T10:30:07.747Z,99006.75
2022-11-05T10:32:41.646Z,99013.75
2022-11-05T10:35:18.979Z,99006.94
2022-11-05T10:37:47.302Z,99019.00
2022-11-05T10:40:52.211Z,99018.66
2022-11-05T10:43:41.063Z,99032.34
2022-11-05T10:46:29.921Z,99037.34
2022-11-05T10:49:53.596Z,99039.06
2022-11-05T10:52:27.152Z,99030.00
2022-11-05T10:55:02.180Z,99023.13
2022-11-05T10:57:31.820Z,99035.94
2022-11-05T11:00:31.926Z,99040.88
2022-11-05T11:03:04.355Z,99042.72
2022-11-05T11:05:41.422Z,99048.75
2022-11-05T11:08:12.093Z,99047.66
2022-11-05T11:10:52.938Z,99046.78
2022-11-05T11:13:29.440Z,99058.19
2022-11-05T11:16:21.229Z,99047.25
2022-11-05T11:19:01.297Z,99048.97
2022-11-05T11:21:32.550Z,99038.25
2022-11-05T11:24:07.243Z,99045.56
2022-11-05T11:26:40.097Z,99043.91
2022-11-05T11:29:26.998Z,99049.59
2022-11-05T11:32:03.330Z,99046.13
2022-11-05T11:34:36.618Z,99036.28
2022-11-05T11:37:33.267Z,99036.91
2022-11-05T11:40:32.116Z,99013.22
2022-11-05T11:43:21.601Z,99031.41
2022-11-05T11:45:54.377Z,99030.97
2022-11-05T11:48:35.777Z,99032.16
2022-11-05T11:51:49.854Z,99035.59
2022-11-05T11:54:25.866Z,99032.38
2022-11-05T11:56:57.284Z,99029.47
2022-11-05T11:59:53.946Z,99039.25
2022-11-05T12:02:55.939Z,99035.38
2022-11-05T12:05:46.301Z,99038.34
2022-11-05T12:09:27.845Z,99034.91
2022-11-05T12:12:09.410Z,99054.03
2022-11-05T12:15:25.216Z,99067.50
2022-11-05T12:18:43.667Z,99070.78
2022-11-05T12:22:05.872Z,99066.00
2022-11-05T12:25:04.914Z,99063.09
2022-11-05T12:28:15.239Z,99063.59
2022-11-05T12:31:27.683Z,99067.97
2022-11-05T12:34:51.529Z,99073.13
2022-11-05T12:38:07.250Z,99073.22
2022-11-05T12:41:15.638Z,99069.69
2022-11-05T12:44:31.722Z,99080.94
2022-11-05T12:47:38.763Z,99084.63
2022-11-05T12:50:32.160Z,99082.28
2022-11-05T12:53:39.327Z,99090.97
2022-11-05T12:56:31.563Z,99083.41
2022-11-05T12:59:42.171Z,99086.28
2022-11-05T13:02:31.080Z,99077.00
2022-11-05T13:05:43.245Z,99080.69
2022-11-05T13:08:23.672Z,99082.75
2022-11-05T13:11:11.629Z,99089.13
2022-11-05T13:13:48.077Z,99084.25
2022-11-05T13:16:43.699Z,99085.94
2022-11-05T13:19:38.222Z,99090.97
2022-11-05T13:22:41.790Z,99090.31
2022-11-05T13:25:27.512Z,99095.34
2022-11-05T13:28:24.451Z,99089.22
2022-11-05T13:31:01.678Z,99084.44
2022-11-05T13:33:42.804Z,99095.59
2022-11-05T13:36:42.991Z,99098.28
2022-11-05T13:40:02.261Z,99095.06
2022-11-05T13:43:14.829Z,99096.44
2022-11-05T13:46:11.879Z,99102.16
2022-11-05T13:49:10.459Z,99103.66
2022-11-05T13:52:02.851Z,99099.03
2022-11-05T13:55:30.748Z,99113.44
2022-11-05T13:58:14.344Z,99117.50
2022-11-05T14:01:15.674Z,99122.50
2022-11-05T14:03:55.039Z,99132.63
2022-11-05T14:06:35.351Z,99137.53
2022-11-05T14:09:12.287Z,99140.34
2022-11-05T14:11:56.583Z,99144.28
2022-11-05T14:14:32.734Z,99143.78
2022-11-05T14:17:09.606Z,99137.44
2022-11-05T14:24:02.941Z,99137.63
2022-11-05T14:26:33.394Z,99145.91
2022-11-05T14:29:04.929Z,99143.91
2022-11-05T14:32:07.705Z,99144.50
2022-11-05T14:35:17.744Z,99149.59
2022-11-05T14:37:59.440Z,99146.13
2022-11-05T14:40:42.534Z,99148.81
2022-11-05T14:43:26.239Z,99149.72
2022-11-05T14:46:07.063Z,99154.59
2022-11-05T14:49:05.126Z,99161.06
2022-11-05T14:51:47.463Z,99129.34
2022-11-05T14:54:53.920Z,99166.47
2022-11-05T14:57:43.453Z,99171.69
2022-11-05T15:00:30.270Z,99181.53
2022-11-05T15:03:45.893Z,99177.84
2022-11-05T15:06:33.437Z,99187.75
2022-11-05T15:09:33.643Z,99176.91
2022-11-05T15:12:19.157Z,99172.94
2022-11-05T15:14:58.139Z,99164.84
2022-11-05T15:17:42.900Z,99175.25
2022-11-05T15:20:23.930Z,99168.63
2022-11-05T15:23:04.694Z,99174.16
2022-11-05T15:26:10.196Z,99164.13
2022-11-05T15:28:58.562Z,99168.13
2022-11-05T15:31:43.692Z,99181.34
2022-11-05T15:34:32.893Z,99171.69
2022-11-05T15:37:26.277Z,99183.19
2022-11-05T15:39:57.569Z,99189.09
2022-11-05T15:42:28.349Z,99204.88
2022-11-05T15:45:01.158Z,99206.19
2022-11-05T15:47:35.024Z,99205.34
2022-11-05T15:50:16.931Z,99199.97
2022-11-05T15:53:04.879Z,99205.75
2022-11-05T15:55:54.150Z,99202.28
2022-11-05T15:58:23.008Z,99204.47
2022-11-05T16:00:51.593Z,99196.63
2022-11-05T16:03:38.826Z,99212.00
2022-11-05T16:06:10.712Z,99203.88
2022-11-05T16:08:39.399Z,99216.03
2022-11-05T16:11:08.942Z,99207.53
2022-11-05T16:13:43.047Z,99215.47
2022-11-05T16:16:14.545Z,99221.50
2022-11-05T16:18:45.151Z,99224.25
2022-11-05T16:21:23.298Z,99218.75
2022-11-05T16:23:57.765Z,99225.72
2022-11-05T16:27:02.182Z,99225.19
2022-11-05T16:30:02.673Z,99225.63
2022-11-05T16:32:32.067Z,99227.78
2022-11-05T16:35:06.083Z,99232.94
2022-11-05T16:37:46.321Z,99228.88
2022-11-05T16:40:25.844Z,99237.47
2022-11-05T16:42:55.944Z,99232.88
2022-11-05T16:45:26.175Z,99246.31
2022-11-05T16:47:55.647Z,99248.69
2022-11-05T16:50:32.793Z,99250.72
2022-11-05T16:53:01.427Z,99254.94
2022-11-05T16:55:33.647Z,99259.78
2022-11-05T16:58:04.107Z,99258.16
2022-11-05T17:00:34.105Z,99265.28
2022-11-05T17:03:04.284Z,99262.69
2022-11-05T17:05:33.709Z,99262.91
2022-11-05T17:08:03.611Z,99261.38
2022-11-05T17:10:32.343Z,99258.81
2022-11-05T17:13:01.218Z,99265.28
2022-11-05T17:15:36.779Z,99255.91
2022-11-05T17:18:07.163Z,99262.25
2022-11-05T17:20:45.429Z,99266.13
2022-11-05T17:23:26.866Z,99261.72
2022-11-05T17:26:03.692Z,99265.25
2022-11-05T17:28:33.459Z,99279.13
2022-11-05T17:31:07.566Z,99276.97
2022-11-05T17:33:37.108Z,99280.06
2022-11-05T17:36:14.218Z,99285.03
2022-11-05T17:38:43.588Z,99289.50
2022-11-05T17:41:20.542Z,99291.47
2022-11-05T17:43:53.927Z,99301.78
2022-11-05T17:46:23.681Z,99307.66
2022-11-05T17:48:52.320Z,99308.66
2022-11-05T17:51:21.628Z,99309.03
2022-11-05T17:53:50.350Z,99314.75
2022-11-05T17:56:32.550Z,99320.00
2022-11-05T17:59:04.204Z,99311.00
2022-11-05T18:01:37.447Z,99324.41
2022-11-05T18:04:08.930Z,99320.00
2022-11-05T18:06:40.349Z,99319.06
2022-11-05T18:09:11.578Z,99316.13
2022-11-05T18:11:41.311Z,99310.44
2022-11-05T18:14:10.543Z,99323.66
2022-11-05T18:16:39.254Z,99320.28
2022-11-05T18:19:08.905Z,99321.91
2022-11-05T18:21:37.464Z,99320.41
2022-11-05T18:24:06.864Z,99330.31
2022-11-05T18:26:35.563Z,99322.13
2022-11-05T18:29:06.211Z,99330.31
2022-11-05T18:31:34.935Z,99335.66
2022-11-05T18:34:03.737Z,99333.84
2022-11-05T18:36:34.100Z,99333.72
2022-11-05T18:39:05.518Z,99340.16
2022-11-05T18:41:35.207Z,99344.66
2022-11-05T18:44:05.221Z,99345.00
2022-11-05T18:49:23.493Z,99347.47
2022-11-05T18:51:52.940Z,99343.81
2022-11-05T18:54:21.544Z,99336.72
2022-11-05T18:56:50.202Z,99340.72
2022-11-05T18:59:36.793Z,99344.84
2022-11-05T19:02:10.754Z,99351.06
2022-11-05T19:04:50.543Z,99350.50
2022-11-05T19:07:29.273Z,99344.91
2022-11-05T19:09:57.840Z,99352.56
2022-11-05T19:12:26.504Z,99362.09
2022-11-05T19:15:02.119Z,99379.91
2022-11-05T19:17:32.877Z,99384.00
2022-11-05T19:20:02.604Z,99383.81
2022-11-05T19:22:31.210Z,99397.25
2022-11-05T19:24:59.665Z,99395.41
2022-11-05T19:27:28.248Z,99406.75
2022-11-05T19:29:56.854Z,99410.50
2022-11-05T19:32:25.700Z,99413.91
2022-11-05T19:34:53.471Z,99418.38
2022-11-05T19:37:21.895Z,99429.56
2022-11-05T19:39:49.542Z,99422.22
2022-11-05T19:42:17.271Z,99421.88
2022-11-05T19:44:48.449Z,99434.50
2022-11-05T19:47:17.363Z,99438.06
2022-11-05T19:49:46.860Z,99440.84
2022-11-05T19:52:14.541Z,99442.22
2022-11-05T19:54:42.234Z,99441.91
2022-11-05T19:57:12.861Z,99444.88
2022-11-05T19:59:41.398Z,99451.13
2022-11-05T20:02:15.837Z,99457.34
2022-11-05T20:04:45.821Z,99460.72
2022-11-05T20:07:14.372Z,99452.19
2022-11-05T20:09:42.949Z,99456.38
2022-11-05T20:12:10.668Z,99447.22
2022-11-05T20:14:39.218Z,99459.44
2022-11-05T20:17:08.766Z,99464.38
2022-11-05T20:19:38.897Z,99461.75
2022-11-05T20:22:06.606Z,99463.50
2022-11-05T20:24:34.290Z,99471.72
2022-11-05T20:27:01.934Z,99471.56
2022-11-05T20:29:35.274Z,99483.16
2022-11-05T20:32:04.750Z,99480.84
2022-11-05T20:34:35.088Z,99482.63
2022-11-05T20:37:03.186Z,99485.91
2022-11-05T20:39:30.953Z,99487.81
2022-11-05T20:42:00.632Z,99497.09
2022-11-05T20:44:28.568Z,99495.88
2022-11-05T20:46:56.429Z,99502.66
2022-11-05T20:49:27.544Z,99491.94
2022-11-05T20:51:55.795Z,99492.78
2022-11-05T20:54:24.065Z,99496.25
2022-11-05T20:56:52.084Z,99493.69
2022-11-05T20:59:19.918Z,99496.44
2022-11-05T21:01:52.088Z,99503.53
2022-11-05T21:04:21.629Z,99500.84
2022-11-05T21:06:49.256Z,99512.16
2022-11-05T21:09:20.607Z,99510.25
2022-11-05T21:12:07.074Z,99507.56
2022-11-05T21:14:34.707Z,99520.00
2022-11-05T21:17:02.537Z,99509.47
2022-11-05T21:19:33.095Z,99516.56
2022-11-05T21:22:00.888Z,99514.66
2022-11-05T21:24:28.574Z,99501.63
2022-11-05T21:26:59.219Z,99511.03
2022-11-05T21:29:27.491Z,99512.63
2022-11-05T21:31:56.003Z,99516.19
2022-11-05T21:34:23.917Z,99506.03
2022-11-05T21:36:51.751Z,99509.09
2022-11-05T21:39:19.526Z,99508.81
2022-11-05T21:41:47.191Z,99515.69
2022-11-05T21:44:15.928Z,99510.44
2022-11-05T21:46:46.071Z,99516.94
2022-11-05T21:49:14.674Z,99516.75
2022-11-05T21:52:00.806Z,99518.56
2022-11-05T21:54:47.157Z,99527.28
2022-11-05T21:57:36.702Z,99525.00
2022-11-05T22:00:09.509Z,99521.25
2022-11-05T22:02:38.253Z,99520.38
2022-11-05T22:05:07.498Z,99515.13
2022-11-05T22:07:39.010Z,99531.88
2022-11-05T22:10:15.891Z,99526.31
2022-11-05T22:12:45.469Z,99525.38
2022-11-05T22:15:13.678Z,99532.66
2022-11-05T22:17:46.258Z,99526.72
2022-11-05T22:20:15.695Z,99525.00
2022-11-05T22:22:44.426Z,99527.09
2022-11-05T22:25:13.463Z,99531.69
2022-11-05T22:27:44.164Z,99539.25
2022-11-05T22:30:13.615Z,99533.03
2022-11-05T22:32:41.422Z,99527.56
2022-11-05T22:35:09.865Z,99538.59
2022-11-05T22:37:37.929Z,99538.22
2022-11-05T22:40:06.511Z,99535.88
2022-11-05T22:42:34.301Z,99550.44
2022-11-05T22:45:03.242Z,99539.03
2022-11-05T22:47:31.913Z,99535.34
2022-11-05T22:50:00.554Z,99534.28
2022-11-05T22:52:28.479Z,99537.16
2022-11-05T22:54:57.567Z,99544.16
2022-11-05T22:57:25.997Z,99539.25
2022-11-05T22:59:53.663Z,99542.81
2022-11-05T23:02:21.477Z,99543.38
2022-11-05T23:04:51.580Z,99549.41
2022-11-05T23:07:37.834Z,99548.81
2022-11-05T23:10:24.859Z,99546.25
2022-11-05T23:12:55.812Z,99551.97
2022-11-05T23:15:42.278Z,99548.16
2022-11-05T23:18:29.270Z,99548.16
2022-11-05T23:21:19.202Z,99544.34
2022-11-05T23:24:05.352Z,99545.09
2022-11-05T23:26:51.612Z,99548.16
2022-11-05T23:29:27.118Z,99544.81
2022-11-05T23:32:13.639Z,99553.53
2022-11-05T23:34:44.762Z,99557.34
2022-11-05T23:37:30.771Z,99560.13
2022-11-05T23:39:58.436Z,99563.06
2022-11-05T23:42:44.613Z,99562.63
2022-11-05T23:45:31.985Z,99564.34
2022-11-05T23:48:18.804Z,99551.81
2022-11-05T23:51:11.433Z,99556.13
2022-11-05T23:53:41.583Z,99565.50
2022-11-05T23:56:16.039Z,99562.69
2022-11-05T23:58:43.737Z,99553.59
